sensor_id;sensor_type;location;lat;lon;timestamp;pressure;altitude;pressure_sealevel;temperature;humidity
44079;BME280;29744;49.078;12.878;2023-04-30T00:02:11;96574.91;;;15.30;38.87
44079;BME280;29744;49.078;12.878;2023-04-30T00:07:11;96584.13;;;15.29;39.08
44079;BME280;29744;49.078;12.878;2023-04-30T00:12:11;96587.94;;;15.28;38.98
44079;BME280;29744;49.078;12.878;2023-04-30T00:17:12;96593.34;;;15.28;39.22
44079;BME280;29744;49.078;12.878;2023-04-30T00:22:12;96590.66;;;15.28;39.04
44079;BME280;29744;49.078;12.878;2023-04-30T00:27:12;96592.56;;;15.28;38.96
44079;BME280;29744;49.078;12.878;2023-04-30T00:32:12;96592.09;;;15.26;38.77
44079;BME280;29744;49.078;12.878;2023-04-30T00:37:13;96585.56;;;15.27;38.67
44079;BME280;29744;49.078;12.878;2023-04-30T00:42:13;96578.59;;;15.26;38.69
44079;BME280;29744;49.078;12.878;2023-04-30T00:47:13;96584.78;;;15.26;39.04
44079;BME280;29744;49.078;12.878;2023-04-30T00:52:14;96585.91;;;15.25;38.99
44079;BME280;29744;49.078;12.878;2023-04-30T00:57:14;96595.91;;;15.25;38.93
44079;BME280;29744;49.078;12.878;2023-04-30T01:02:15;96597.81;;;15.24;39.28
44079;BME280;29744;49.078;12.878;2023-04-30T01:07:16;96609.75;;;15.23;38.63
44079;BME280;29744;49.078;12.878;2023-04-30T01:12:27;96614.34;;;15.23;38.61
44079;BME280;29744;49.078;12.878;2023-04-30T01:17:46;96614.22;;;15.19;39.09
44079;BME280;29744;49.078;12.878;2023-04-30T01:23:13;96618.81;;;15.19;38.97
44079;BME280;29744;49.078;12.878;2023-04-30T01:28:17;96625.47;;;15.21;38.87
44079;BME280;29744;49.078;12.878;2023-04-30T01:33:20;96623.09;;;15.20;38.66
44079;BME280;29744;49.078;12.878;2023-04-30T01:49:50;96635.34;;;15.17;38.62
44079;BME280;29744;49.078;12.878;2023-04-30T01:55:23;96636.78;;;15.14;38.96
44079;BME280;29744;49.078;12.878;2023-04-30T02:00:28;96647.75;;;15.18;39.16
44079;BME280;29744;49.078;12.878;2023-04-30T02:05:29;96641.53;;;15.18;38.58
44079;BME280;29744;49.078;12.878;2023-04-30T02:10:30;96649.66;;;15.18;39.25
44079;BME280;29744;49.078;12.878;2023-04-30T02:15:30;96656.97;;;15.17;38.67
44079;BME280;29744;49.078;12.878;2023-04-30T02:20:31;96664.28;;;15.17;38.91
44079;BME280;29744;49.078;12.878;2023-04-30T02:25:31;96671.59;;;15.16;38.96
44079;BME280;29744;49.078;12.878;2023-04-30T02:30:36;96677.00;;;15.16;38.63
44079;BME280;29744;49.078;12.878;2023-04-30T02:35:39;96678.09;;;15.15;38.89
44079;BME280;29744;49.078;12.878;2023-04-30T02:40:40;96672.69;;;15.15;38.93
44079;BME280;29744;49.078;12.878;2023-04-30T02:45:41;96680.81;;;15.15;39.09
44079;BME280;29744;49.078;12.878;2023-04-30T02:50:41;96682.72;;;15.14;38.55
44079;BME280;29744;49.078;12.878;2023-04-30T02:55:42;96673.81;;;15.14;38.82
44079;BME280;29744;49.078;12.878;2023-04-30T03:00:42;96687.31;;;15.14;38.70
44079;BME280;29744;49.078;12.878;2023-04-30T03:05:42;96677.63;;;15.13;39.10
44079;BME280;29744;49.078;12.878;2023-04-30T03:10:42;96683.03;;;15.13;39.02
44079;BME280;29744;49.078;12.878;2023-04-30T03:15:43;96685.72;;;15.13;38.72
44079;BME280;29744;49.078;12.878;2023-04-30T03:20:44;96681.44;;;15.12;38.63
44079;BME280;29744;49.078;12.878;2023-04-30T03:25:44;96685.25;;;15.11;38.54
44079;BME280;29744;49.078;12.878;2023-04-30T03:30:45;96685.25;;;15.11;39.15
44079;BME280;29744;49.078;12.878;2023-04-30T03:35:45;96693.38;;;15.11;38.90
44079;BME280;29744;49.078;12.878;2023-04-30T03:40:45;96687.16;;;15.10;38.93
44079;BME280;29744;49.078;12.878;2023-04-30T03:45:46;96689.88;;;15.10;38.65
44079;BME280;29744;49.078;12.878;2023-04-30T03:50:46;96690.97;;;15.09;38.82
44079;BME280;29744;49.078;12.878;2023-04-30T03:55:48;96694.47;;;15.10;38.75
44079;BME280;29744;49.078;12.878;2023-04-30T04:00:49;96701.00;;;15.09;38.58
44079;BME280;29744;49.078;12.878;2023-04-30T04:05:49;96701.31;;;15.07;38.65
44079;BME280;29744;49.078;12.878;2023-04-30T04:10:49;96704.81;;;15.08;38.71
44079;BME280;29744;49.078;12.878;2023-04-30T04:15:50;96707.84;;;15.06;38.76
44079;BME280;29744;49.078;12.878;2023-04-30T04:20:50;96703.22;;;15.07;39.08
44079;BME280;29744;49.078;12.878;2023-04-30T04:25:50;96713.22;;;15.06;38.55
44079;BME280;29744;49.078;12.878;2023-04-30T04:30:51;96714.03;;;15.07;38.92
44079;BME280;29744;49.078;12.878;2023-04-30T04:35:52;96722.13;;;15.07;38.72
44079;BME280;29744;49.078;12.878;2023-04-30T04:40:53;96719.44;;;15.07;38.81
44079;BME280;29744;49.078;12.878;2023-04-30T04:45:53;96713.22;;;15.06;38.70
44079;BME280;29744;49.078;12.878;2023-04-30T04:50:53;96711.31;;;15.07;38.90
44079;BME280;29744;49.078;12.878;2023-04-30T04:55:54;96716.72;;;15.07;39.07
44079;BME280;29744;49.078;12.878;2023-04-30T05:00:54;96716.72;;;15.07;38.53
44079;BME280;29744;49.078;12.878;2023-04-30T05:05:54;96720.22;;;15.07;38.92
44079;BME280;29744;49.078;12.878;2023-04-30T05:10:55;96728.31;;;15.07;38.47
44079;BME280;29744;49.078;12.878;2023-04-30T05:15:55;96727.53;;;15.07;38.52
44079;BME280;29744;49.078;12.878;2023-04-30T05:20:56;96731.81;;;15.08;38.87
44079;BME280;29744;49.078;12.878;2023-04-30T05:25:56;96727.22;;;15.08;38.71
44079;BME280;29744;49.078;12.878;2023-04-30T05:30:56;96733.41;;;15.09;38.67
44079;BME280;29744;49.078;12.878;2023-04-30T05:35:56;96736.91;;;15.09;38.47
44079;BME280;29744;49.078;12.878;2023-04-30T05:40:57;96733.09;;;15.10;38.73
44079;BME280;29744;49.078;12.878;2023-04-30T05:45:57;96740.06;;;15.11;38.92
44079;BME280;29744;49.078;12.878;2023-04-30T05:50:57;96740.88;;;15.12;38.67
44079;BME280;29744;49.078;12.878;2023-04-30T05:55:58;96741.66;;;15.12;38.92
44079;BME280;29744;49.078;12.878;2023-04-30T06:00:58;96736.25;;;15.12;38.47
44079;BME280;29744;49.078;12.878;2023-04-30T06:05:58;96739.75;;;15.13;38.67
44079;BME280;29744;49.078;12.878;2023-04-30T06:10:59;96746.75;;;15.14;38.92
44079;BME280;29744;49.078;12.878;2023-04-30T06:15:59;96748.66;;;15.13;38.88
44079;BME280;29744;49.078;12.878;2023-04-30T06:20:59;96746.75;;;15.14;38.85
44079;BME280;29744;49.078;12.878;2023-04-30T06:26:00;96757.25;;;15.16;38.59
44079;BME280;29744;49.078;12.878;2023-04-30T06:31:00;96751.50;;;15.17;38.41
44079;BME280;29744;49.078;12.878;2023-04-30T06:36:00;96754.22;;;15.17;38.42
44079;BME280;29744;49.078;12.878;2023-04-30T06:41:01;96756.13;;;15.17;38.84
44079;BME280;29744;49.078;12.878;2023-04-30T06:46:01;96756.13;;;15.17;38.49
44079;BME280;29744;49.078;12.878;2023-04-30T06:51:01;96762.31;;;15.17;38.89
44079;BME280;29744;49.078;12.878;2023-04-30T06:56:01;96753.91;;;15.19;38.70
44079;BME280;29744;49.078;12.878;2023-04-30T07:01:03;96762.78;;;15.19;38.30
44079;BME280;29744;49.078;12.878;2023-04-30T07:06:03;96769.00;;;15.20;38.68
44079;BME280;29744;49.078;12.878;2023-04-30T07:11:04;96765.97;;;15.21;38.51
44079;BME280;29744;49.078;12.878;2023-04-30T07:16:05;96766.75;;;15.22;38.53
44079;BME280;29744;49.078;12.878;2023-04-30T07:21:05;96765.97;;;15.21;38.74
44079;BME280;29744;49.078;12.878;2023-04-30T07:26:05;96763.75;;;15.23;38.24
44079;BME280;29744;49.078;12.878;2023-04-30T07:31:06;96768.03;;;15.24;38.39
44079;BME280;29744;49.078;12.878;2023-04-30T07:36:06;96766.91;;;15.25;38.50
44079;BME280;29744;49.078;12.878;2023-04-30T07:41:07;96760.72;;;15.25;38.32
44079;BME280;29744;49.078;12.878;2023-04-30T07:46:08;96760.41;;;15.26;38.53
44079;BME280;29744;49.078;12.878;2023-04-30T07:51:08;96765.81;;;15.26;38.36
44079;BME280;29744;49.078;12.878;2023-04-30T07:56:09;96765.50;;;15.28;38.43
44079;BME280;29744;49.078;12.878;2023-04-30T08:01:09;96773.28;;;15.29;38.45
44079;BME280;29744;49.078;12.878;2023-04-30T08:06:09;96772.47;;;15.29;38.35
44079;BME280;29744;49.078;12.878;2023-04-30T08:11:10;96771.38;;;15.30;38.47
44079;BME280;29744;49.078;12.878;2023-04-30T08:16:11;96780.25;;;15.30;38.58
44079;BME280;29744;49.078;12.878;2023-04-30T08:21:12;96775.66;;;15.31;38.31
44079;BME280;29744;49.078;12.878;2023-04-30T08:26:12;96774.06;;;15.30;38.02
44079;BME280;29744;49.078;12.878;2023-04-30T08:31:12;96774.06;;;15.30;38.21
44079;BME280;29744;49.078;12.878;2023-04-30T08:36:15;96775.19;;;15.29;38.31
44079;BME280;29744;49.078;12.878;2023-04-30T08:41:16;96767.88;;;15.29;38.08
44079;BME280;29744;49.078;12.878;2023-04-30T08:46:17;96777.09;;;15.28;38.23
44079;BME280;29744;49.078;12.878;2023-04-30T08:51:17;96771.69;;;15.28;38.55
44079;BME280;29744;49.078;12.878;2023-04-30T08:56:17;96763.56;;;15.28;38.62
44079;BME280;29744;49.078;12.878;2023-04-30T09:01:18;96766.28;;;15.28;38.24
44079;BME280;29744;49.078;12.878;2023-04-30T09:06:18;96770.88;;;15.28;38.45
44079;BME280;29744;49.078;12.878;2023-04-30T09:11:37;96772.00;;;15.27;38.03
44079;BME280;29744;49.078;12.878;2023-04-30T09:16:49;96774.06;;;15.30;38.52
44079;BME280;29744;49.078;12.878;2023-04-30T09:21:50;96786.78;;;15.29;38.40
44079;BME280;29744;49.078;12.878;2023-04-30T09:26:50;96784.88;;;15.30;38.09
44079;BME280;29744;49.078;12.878;2023-04-30T09:31:50;96781.06;;;15.31;38.29
44079;BME280;29744;49.078;12.878;2023-04-30T09:36:52;96787.25;;;15.31;38.27
44079;BME280;29744;49.078;12.878;2023-04-30T09:42:10;96778.34;;;15.31;38.37
44079;BME280;29744;49.078;12.878;2023-04-30T09:47:18;96782.00;;;15.35;38.34
44079;BME280;29744;49.078;12.878;2023-04-30T09:52:19;96774.53;;;15.40;38.43
44079;BME280;29744;49.078;12.878;2023-04-30T09:57:22;96781.34;;;15.46;38.81
44079;BME280;29744;49.078;12.878;2023-04-30T10:02:23;96785.16;;;15.54;38.71
44079;BME280;29744;49.078;12.878;2023-04-30T10:07:30;96777.34;;;15.61;38.49
44079;BME280;29744;49.078;12.878;2023-04-30T10:12:43;96786.06;;;15.67;39.00
44079;BME280;29744;49.078;12.878;2023-04-30T10:17:53;96777.47;;;15.73;38.96
44079;BME280;29744;49.078;12.878;2023-04-30T10:22:56;96771.41;;;15.76;38.79
44079;BME280;29744;49.078;12.878;2023-04-30T10:27:57;96765.06;;;15.81;38.59
44079;BME280;29744;49.078;12.878;2023-04-30T10:33:18;96758.22;;;15.84;38.48
44079;BME280;29744;49.078;12.878;2023-04-30T10:38:23;96754.41;;;15.85;38.89
44079;BME280;29744;49.078;12.878;2023-04-30T10:43:25;96752.31;;;15.90;38.65
44079;BME280;29744;49.078;12.878;2023-04-30T10:48:26;96745.78;;;15.91;37.68
44079;BME280;29744;49.078;12.878;2023-04-30T10:53:30;96744.97;;;15.91;36.89
44079;BME280;29744;49.078;12.878;2023-04-30T10:58:33;96746.91;;;15.90;37.18
44079;BME280;29744;49.078;12.878;2023-04-30T11:03:34;96732.56;;;15.90;37.40
44079;BME280;29744;49.078;12.878;2023-04-30T11:08:36;96725.25;;;15.90;37.69
44079;BME280;29744;49.078;12.878;2023-04-30T11:13:43;96719.19;;;15.93;37.21
44079;BME280;29744;49.078;12.878;2023-04-30T11:18:44;96720.03;;;15.85;37.47
44079;BME280;29744;49.078;12.878;2023-04-30T11:23:48;96720.00;;;15.94;37.67
44079;BME280;29744;49.078;12.878;2023-04-30T11:28:50;96713.47;;;15.95;37.93
44079;BME280;29744;49.078;12.878;2023-04-30T11:33:54;96715.84;;;15.96;37.89
44079;BME280;29744;49.078;12.878;2023-04-30T11:38:54;96711.22;;;15.97;38.11
44079;BME280;29744;49.078;12.878;2023-04-30T11:43:56;96713.28;;;16.00;37.97
44079;BME280;29744;49.078;12.878;2023-04-30T11:48:56;96703.72;;;16.02;38.15
44079;BME280;29744;49.078;12.878;2023-04-30T11:53:57;96703.06;;;16.05;37.93
44079;BME280;29744;49.078;12.878;2023-04-30T11:58:57;96702.41;;;16.08;38.09
44079;BME280;29744;49.078;12.878;2023-04-30T12:03:57;96700.97;;;16.11;38.32
44079;BME280;29744;49.078;12.878;2023-04-30T12:08:59;96690.94;;;16.12;38.09
44079;BME280;29744;49.078;12.878;2023-04-30T12:14:09;96688.56;;;16.10;37.97
44079;BME280;29744;49.078;12.878;2023-04-30T12:19:12;96682.34;;;16.09;38.23
44079;BME280;29744;49.078;12.878;2023-04-30T12:24:14;96691.91;;;16.07;38.16
44079;BME280;29744;49.078;12.878;2023-04-30T12:29:17;96695.28;;;16.04;38.19
44079;BME280;29744;49.078;12.878;2023-04-30T12:34:17;96684.00;;;16.02;37.76
44079;BME280;29744;49.078;12.878;2023-04-30T12:39:18;96684.31;;;16.00;37.69
44079;BME280;29744;49.078;12.878;2023-04-30T12:44:19;96677.31;;;15.99;38.05
44079;BME280;29744;49.078;12.878;2023-04-30T12:49:23;96666.81;;;15.98;37.70
44079;BME280;29744;49.078;12.878;2023-04-30T12:54:28;96657.91;;;15.97;37.76
44079;BME280;29744;49.078;12.878;2023-04-30T12:59:44;96651.25;;;15.95;37.71
44079;BME280;29744;49.078;12.878;2023-04-30T13:04:54;96650.78;;;15.93;37.93
44079;BME280;29744;49.078;12.878;2023-04-30T13:09:55;96643.00;;;15.91;38.25
44079;BME280;29744;49.078;12.878;2023-04-30T13:14:56;96642.53;;;15.89;37.67
44079;BME280;29744;49.078;12.878;2023-04-30T13:19:56;96640.94;;;15.88;38.03
44079;BME280;29744;49.078;12.878;2023-04-30T13:24:56;96629.34;;;15.88;37.83
44079;BME280;29744;49.078;12.878;2023-04-30T13:29:57;96622.34;;;15.87;37.71
44079;BME280;29744;49.078;12.878;2023-04-30T13:34:57;96618.06;;;15.86;38.25
44079;BME280;29744;49.078;12.878;2023-04-30T13:39:57;96625.38;;;15.85;37.75
44079;BME280;29744;49.078;12.878;2023-04-30T13:45:00;96611.06;;;15.85;37.69
44079;BME280;29744;49.078;12.878;2023-04-30T13:50:02;96615.69;;;15.84;37.87
44079;BME280;29744;49.078;12.878;2023-04-30T13:55:02;96621.41;;;15.83;38.26
44079;BME280;29744;49.078;12.878;2023-04-30T14:00:05;96609.00;;;15.82;37.78
44079;BME280;29744;49.078;12.878;2023-04-30T14:05:05;96609.34;;;15.80;38.00
44079;BME280;29744;49.078;12.878;2023-04-30T14:10:06;96603.13;;;15.80;37.73
44079;BME280;29744;49.078;12.878;2023-04-30T14:15:07;96596.91;;;15.79;38.21
44079;BME280;29744;49.078;12.878;2023-04-30T14:20:07;96600.72;;;15.78;37.92
44079;BME280;29744;49.078;12.878;2023-04-30T14:25:08;96591.81;;;15.77;38.34
44079;BME280;29744;49.078;12.878;2023-04-30T14:30:09;96590.25;;;15.76;38.24
44079;BME280;29744;49.078;12.878;2023-04-30T14:35:09;96592.94;;;15.76;37.96
44079;BME280;29744;49.078;12.878;2023-04-30T14:40:10;96591.38;;;15.75;38.38
44079;BME280;29744;49.078;12.878;2023-04-30T14:45:10;96582.47;;;15.75;38.02
44079;BME280;29744;49.078;12.878;2023-04-30T14:50:10;96577.06;;;15.75;38.50
44079;BME280;29744;49.078;12.878;2023-04-30T14:55:11;96579.91;;;15.78;37.92
44079;BME280;29744;49.078;12.878;2023-04-30T15:00:11;96575.59;;;15.77;37.92
44079;BME280;29744;49.078;12.878;2023-04-30T15:05:12;96572.44;;;15.75;38.01
44079;BME280;29744;49.078;12.878;2023-04-30T15:10:12;96579.75;;;15.75;37.82
44079;BME280;29744;49.078;12.878;2023-04-30T15:15:12;96568.94;;;15.75;38.01
44079;BME280;29744;49.078;12.878;2023-04-30T15:20:13;96574.69;;;15.73;38.16
44079;BME280;29744;49.078;12.878;2023-04-30T15:25:13;96564.97;;;15.72;37.96
44079;BME280;29744;49.078;12.878;2023-04-30T15:30:14;96567.69;;;15.72;37.84
44079;BME280;29744;49.078;12.878;2023-04-30T15:35:14;96568.00;;;15.71;37.82
44079;BME280;29744;49.078;12.878;2023-04-30T15:40:14;96558.31;;;15.70;37.95
44079;BME280;29744;49.078;12.878;2023-04-30T15:45:15;96565.97;;;15.68;38.20
44079;BME280;29744;49.078;12.878;2023-04-30T15:50:15;96560.09;;;15.66;38.07
44079;BME280;29744;49.078;12.878;2023-04-30T15:55:15;96565.50;;;15.66;38.49
44079;BME280;29744;49.078;12.878;2023-04-30T16:00:16;96556.13;;;15.63;38.06
44079;BME280;29744;49.078;12.878;2023-04-30T16:05:17;96555.34;;;15.63;37.99
44079;BME280;29744;49.078;12.878;2023-04-30T16:10:18;96551.84;;;15.62;38.17
44079;BME280;29744;49.078;12.878;2023-04-30T16:15:19;96544.84;;;15.61;38.14
44079;BME280;29744;49.078;12.878;2023-04-30T16:20:19;96546.75;;;15.61;38.14
44079;BME280;29744;49.078;12.878;2023-04-30T16:25:20;96551.38;;;15.60;37.81
44079;BME280;29744;49.078;12.878;2023-04-30T16:30:21;96540.09;;;15.58;37.89
44079;BME280;29744;49.078;12.878;2023-04-30T16:35:21;96541.56;;;15.56;38.11
44079;BME280;29744;49.078;12.878;2023-04-30T16:40:22;96540.75;;;15.55;38.17
44079;BME280;29744;49.078;12.878;2023-04-30T16:45:22;96535.69;;;15.54;38.13
44079;BME280;29744;49.078;12.878;2023-04-30T16:50:22;96530.28;;;15.54;38.46
44079;BME280;29744;49.078;12.878;2023-04-30T16:55:26;96537.91;;;15.52;38.13
44079;BME280;29744;49.078;12.878;2023-04-30T17:00:26;96536.00;;;15.52;38.00
44079;BME280;29744;49.078;12.878;2023-04-30T17:05:26;96523.63;;;15.51;37.99
44079;BME280;29744;49.078;12.878;2023-04-30T17:10:27;96526.31;;;15.51;38.33
44079;BME280;29744;49.078;12.878;2023-04-30T17:15:29;96530.13;;;15.50;38.13
44079;BME280;29744;49.078;12.878;2023-04-30T17:20:30;96539.38;;;15.49;38.02
44079;BME280;29744;49.078;12.878;2023-04-30T17:25:30;96537.78;;;15.48;38.48
44079;BME280;29744;49.078;12.878;2023-04-30T17:30:31;96541.59;;;15.47;38.54
44079;BME280;29744;49.078;12.878;2023-04-30T17:35:31;96550.03;;;15.45;38.34
44079;BME280;29744;49.078;12.878;2023-04-30T17:40:33;96557.03;;;15.46;38.10
44079;BME280;29744;49.078;12.878;2023-04-30T17:45:33;96559.25;;;15.44;38.44
44079;BME280;29744;49.078;12.878;2023-04-30T17:50:34;96554.66;;;15.45;38.60
44079;BME280;29744;49.078;12.878;2023-04-30T17:55:35;96556.88;;;15.43;38.12
44079;BME280;29744;49.078;12.878;2023-04-30T18:00:37;96554.19;;;15.43;38.46
44079;BME280;29744;49.078;12.878;2023-04-30T18:05:38;96559.91;;;15.41;38.32
44079;BME280;29744;49.078;12.878;2023-04-30T18:10:38;96563.72;;;15.40;38.47
44079;BME280;29744;49.078;12.878;2023-04-30T18:15:38;96560.56;;;15.38;38.52
44079;BME280;29744;49.078;12.878;2023-04-30T18:20:39;96565.97;;;15.38;38.47
44079;BME280;29744;49.078;12.878;2023-04-30T18:25:40;96567.09;;;15.37;38.70
44079;BME280;29744;49.078;12.878;2023-04-30T18:30:41;96568.22;;;15.36;38.71
44079;BME280;29744;49.078;12.878;2023-04-30T18:35:41;96566.63;;;15.35;38.61
44079;BME280;29744;49.078;12.878;2023-04-30T18:40:45;96565.03;;;15.34;38.24
44079;BME280;29744;49.078;12.878;2023-04-30T18:45:45;96574.25;;;15.33;38.36
44079;BME280;29744;49.078;12.878;2023-04-30T18:50:46;96571.88;;;15.32;38.35
44079;BME280;29744;49.078;12.878;2023-04-30T18:55:46;96579.19;;;15.31;38.87
44079;BME280;29744;49.078;12.878;2023-04-30T19:00:46;96576.50;;;15.31;38.29
44079;BME280;29744;49.078;12.878;2023-04-30T19:05:47;96573.00;;;15.31;38.56
44079;BME280;29744;49.078;12.878;2023-04-30T19:10:47;96575.22;;;15.29;38.50
44079;BME280;29744;49.078;12.878;2023-04-30T19:15:49;96584.13;;;15.29;38.98
44079;BME280;29744;49.078;12.878;2023-04-30T19:20:58;96587.94;;;15.28;38.81
44079;BME280;29744;49.078;12.878;2023-04-30T19:26:00;96590.19;;;15.26;38.84
44079;BME280;29744;49.078;12.878;2023-04-30T19:31:01;96580.50;;;15.25;38.77
44079;BME280;29744;49.078;12.878;2023-04-30T19:36:01;96585.91;;;15.25;38.83
44079;BME280;29744;49.078;12.878;2023-04-30T19:41:01;96580.81;;;15.24;38.65
44079;BME280;29744;49.078;12.878;2023-04-30T19:46:01;96583.53;;;15.24;38.80
44079;BME280;29744;49.078;12.878;2023-04-30T19:51:03;96583.84;;;15.22;38.80
44079;BME280;29744;49.078;12.878;2023-04-30T19:56:03;96583.06;;;15.22;38.95
44079;BME280;29744;49.078;12.878;2023-04-30T20:01:04;96587.66;;;15.21;38.53
44079;BME280;29744;49.078;12.878;2023-04-30T20:06:07;96590.03;;;15.23;39.05
44079;BME280;29744;49.078;12.878;2023-04-30T20:11:08;96583.38;;;15.20;38.86
44079;BME280;29744;49.078;12.878;2023-04-30T20:16:08;96575.28;;;15.20;38.78
44079;BME280;29744;49.078;12.878;2023-04-30T20:21:11;96587.19;;;15.19;38.97
44079;BME280;29744;49.078;12.878;2023-04-30T20:26:11;96581.00;;;15.19;39.07
44079;BME280;29744;49.078;12.878;2023-04-30T20:31:12;96586.72;;;15.17;38.65
44079;BME280;29744;49.078;12.878;2023-04-30T20:36:14;96579.41;;;15.18;38.63
44079;BME280;29744;49.078;12.878;2023-04-30T20:41:14;96579.75;;;15.16;38.85
44079;BME280;29744;49.078;12.878;2023-04-30T20:46:15;96584.34;;;15.16;38.70
44079;BME280;29744;49.078;12.878;2023-04-30T20:51:15;96587.84;;;15.16;38.52
44079;BME280;29744;49.078;12.878;2023-04-30T20:56:16;96581.97;;;15.14;38.84
44079;BME280;29744;49.078;12.878;2023-04-30T21:01:16;96577.34;;;15.14;39.17
44079;BME280;29744;49.078;12.878;2023-04-30T21:06:16;96581.97;;;15.14;38.75
44079;BME280;29744;49.078;12.878;2023-04-30T21:11:17;96584.66;;;15.14;39.04
44079;BME280;29744;49.078;12.878;2023-04-30T21:16:18;96593.56;;;15.14;38.64
44079;BME280;29744;49.078;12.878;2023-04-30T21:21:18;96596.59;;;15.13;38.73
44079;BME280;29744;49.078;12.878;2023-04-30T21:26:19;96589.28;;;15.13;38.90
44079;BME280;29744;49.078;12.878;2023-04-30T21:31:20;96592.31;;;15.12;38.70
44079;BME280;29744;49.078;12.878;2023-04-30T21:36:22;96595.34;;;15.10;38.61
44079;BME280;29744;49.078;12.878;2023-04-30T21:41:22;96589.59;;;15.12;38.76
44079;BME280;29744;49.078;12.878;2023-04-30T21:46:24;96586.09;;;15.11;39.13
44079;BME280;29744;49.078;12.878;2023-04-30T21:51:24;96587.22;;;15.10;39.06
44079;BME280;29744;49.078;12.878;2023-04-30T21:56:24;96581.03;;;15.10;39.11
44079;BME280;29744;49.078;12.878;2023-04-30T22:01:25;96589.13;;;15.10;38.89
44079;BME280;29744;49.078;12.878;2023-04-30T22:06:28;96584.06;;;15.08;38.75
44079;BME280;29744;49.078;12.878;2023-04-30T22:11:29;96584.06;;;15.08;38.80
44079;BME280;29744;49.078;12.878;2023-04-30T22:16:29;96588.66;;;15.08;38.86
44079;BME280;29744;49.078;12.878;2023-04-30T22:21:29;96587.88;;;15.07;38.98
44079;BME280;29744;49.078;12.878;2023-04-30T22:26:30;96585.50;;;15.06;39.15
44079;BME280;29744;49.078;12.878;2023-04-30T22:31:30;96576.28;;;15.07;39.06
44079;BME280;29744;49.078;12.878;2023-04-30T22:36:31;96576.28;;;15.07;38.90
44079;BME280;29744;49.078;12.878;2023-04-30T22:41:31;96574.69;;;15.06;38.90
44079;BME280;29744;49.078;12.878;2023-04-30T22:46:33;96563.88;;;15.06;38.88
44079;BME280;29744;49.078;12.878;2023-04-30T22:51:35;96565.78;;;15.05;38.83
44079;BME280;29744;49.078;12.878;2023-04-30T22:56:36;96565.00;;;15.05;38.77
44079;BME280;29744;49.078;12.878;2023-04-30T23:01:38;96565.00;;;15.05;38.81
44079;BME280;29744;49.078;12.878;2023-04-30T23:06:38;96559.59;;;15.05;38.93
44079;BME280;29744;49.078;12.878;2023-04-30T23:11:39;96564.53;;;15.03;38.87
44079;BME280;29744;49.078;12.878;2023-04-30T23:16:39;96557.22;;;15.03;38.92
44079;BME280;29744;49.078;12.878;2023-04-30T23:21:41;96549.13;;;15.03;39.10
44079;BME280;29744;49.078;12.878;2023-04-30T23:26:42;96549.41;;;15.02;38.59
44079;BME280;29744;49.078;12.878;2023-04-30T23:31:43;96545.91;;;15.01;39.04
44079;BME280;29744;49.078;12.878;2023-04-30T23:36:43;96541.63;;;15.00;39.12
44079;BME280;29744;49.078;12.878;2023-04-30T23:41:43;96528.13;;;15.00;39.20
44079;BME280;29744;49.078;12.878;2023-04-30T23:46:44;96531.63;;;15.01;39.19
44079;BME280;29744;49.078;12.878;2023-04-30T23:51:44;96524.63;;;15.00;38.72
44079;BME280;29744;49.078;12.878;2023-04-30T23:56:45;96514.94;;;14.99;38.86
